Time;durP1;ratioP1;P1;durP2;ratioP2;P2;SDS_P1;SDS_P2;PMS_P1;PMS_P2;Temp;Humidity;BMP_temperature;BMP_pressure;BME280_temperature;BME280_humidity;BME280_pressure;Samples;Min_cycle;Max_cycle;Signal;HPM_P1;HPM_P2
2022/06/23 00:00:29;;;;;;;5.00;1.92;;;;;;;22.67;52.69;99282.81;4360382;32;32913;-78
2022/06/23 00:03:21;;;;;;;3.53;1.80;;;;;;;22.64;54.42;99280.84;4351166;32;34538;-78
2022/06/23 00:06:26;;;;;;;4.65;2.55;;;;;;;22.28;55.84;99284.84;4363742;32;34652;-77
2022/06/23 00:09:38;;;;;;;4.78;2.00;;;;;;;22.15;55.94;99292.81;4361070;32;34690;-77
2022/06/23 00:12:35;;;;;;;4.25;1.92;;;;;;;22.21;55.58;99302.41;4367214;32;34246;-77
2022/06/23 00:15:28;;;;;;;3.75;1.98;;;;;;;21.77;57.38;99301.50;4360636;32;35559;-77
2022/06/23 00:18:20;;;;;;;6.68;2.00;;;;;;;21.92;57.11;99305.13;4369826;32;35873;-78
2022/06/23 00:21:22;;;;;;;5.03;1.80;;;;;;;21.77;56.77;99312.66;4359764;32;34652;-78
2022/06/23 00:24:19;;;;;;;4.85;2.00;;;;;;;21.77;55.35;99303.47;4364878;32;34218;-78
2022/06/23 00:27:12;;;;;;;4.22;1.90;;;;;;;21.97;55.51;99309.50;4361604;32;35313;-77
2022/06/23 00:30:03;;;;;;;4.15;1.90;;;;;;;22.27;55.41;99323.13;4361589;32;33821;-77
2022/06/23 00:32:49;;;;;;;6.60;3.65;;;;;;;21.71;55.83;99330.16;4361077;32;34734;-78
2022/06/23 00:35:36;;;;;;;3.95;1.92;;;;;;;21.22;56.72;99328.75;4370249;32;34681;-77
2022/06/23 00:38:31;;;;;;;8.65;3.53;;;;;;;21.58;55.73;99324.16;4367870;32;34763;-78
2022/06/23 00:41:21;;;;;;;4.47;1.92;;;;;;;21.69;54.86;99321.41;4361251;32;34695;-77
2022/06/23 00:44:18;;;;;;;2.60;1.60;;;;;;;21.39;55.23;99318.91;4368062;32;34953;-77
2022/06/23 00:47:07;;;;;;;1.85;1.20;;;;;;;21.03;51.78;99329.81;4360116;32;35277;-77
2022/06/23 00:49:59;;;;;;;5.18;1.30;;;;;;;20.91;49.08;99336.50;4362520;32;34758;-77
2022/06/23 00:52:47;;;;;;;;;;;;;;;21.00;47.77;99342.53;4363808;32;35629;-76
2022/06/23 00:56:01;;;;;;;3.97;1.48;;;;;;;20.99;45.87;99340.94;4360706;32;35807;-77
2022/06/23 00:58:57;;;;;;;4.75;1.20;;;;;;;21.46;46.26;99350.41;4360987;32;35208;-77
2022/06/23 01:01:55;;;;;;;1.98;1.15;;;;;;;21.90;45.09;99354.91;4361272;32;35704;-77
2022/06/23 01:04:57;;;;;;;5.65;1.40;;;;;;;20.87;46.96;99361.56;4359680;32;35025;-77
2022/06/23 01:08:11;;;;;;;1.85;1.20;;;;;;;21.42;46.95;99346.78;4359812;32;35577;-77
2022/06/23 01:11:40;;;;;;;2.85;1.15;;;;;;;21.89;45.81;99353.34;4360508;32;35008;-77
2022/06/23 01:14:43;;;;;;;2.30;1.42;;;;;;;22.39;45.37;99347.84;4340434;32;34130;-77
2022/06/23 01:17:38;;;;;;;3.53;1.37;;;;;;;22.08;47.73;99351.38;4361294;32;35035;-77
2022/06/23 01:20:29;;;;;;;5.32;1.35;;;;;;;21.73;49.07;99350.88;4358918;32;34609;-78
2022/06/23 01:23:21;;;;;;;2.80;1.35;;;;;;;21.88;49.96;99348.94;4356508;32;34722;-78
2022/06/23 01:26:22;;;;;;;3.12;1.23;;;;;;;21.52;49.81;99351.59;4361129;32;33579;-79
2022/06/23 01:29:17;;;;;;;4.65;1.60;;;;;;;21.69;51.61;99358.44;4369364;32;35792;-78
2022/06/23 01:32:08;;;;;;;4.75;1.40;;;;;;;20.40;57.96;99371.47;4359139;32;34619;-78
2022/06/23 01:35:28;;;;;;;2.87;1.40;;;;;;;19.80;57.83;99371.66;4359461;32;36082;-78
2022/06/23 01:38:22;;;;;;;5.18;1.40;;;;;;;21.14;54.79;99357.75;4330596;32;34584;-79
2022/06/23 01:41:17;;;;;;;6.78;1.85;;;;;;;20.76;57.78;99371.03;4356877;32;34773;-79
2022/06/23 01:44:15;;;;;;;4.75;1.48;;;;;;;20.84;62.24;99375.47;4363715;32;35328;-79
2022/06/23 01:47:11;;;;;;;3.37;1.45;;;;;;;21.23;61.25;99360.97;4368991;32;34369;-78
2022/06/23 01:50:13;;;;;;;2.95;1.30;;;;;;;21.02;58.31;99340.16;4361437;32;34705;-78
2022/06/23 01:53:22;;;;;;;2.75;1.50;;;;;;;21.12;57.78;99353.37;4363193;32;35634;-78
2022/06/23 01:56:34;;;;;;;2.37;1.05;;;;;;;21.05;59.01;99355.31;4365035;32;34256;-77
2022/06/23 01:59:39;;;;;;;2.40;1.50;;;;;;;21.07;58.68;99358.50;4365694;32;33773;-78
2022/06/23 02:02:51;;;;;;;2.72;1.37;;;;;;;20.86;61.11;99346.03;4366051;32;34679;-77
2022/06/23 02:05:43;;;;;;;;;;;;;;;20.74;61.19;99351.13;4365636;32;35070;-77
2022/06/23 02:08:50;;;;;;;3.72;1.67;;;;;;;20.60;65.78;99358.16;4367229;32;35167;-77
2022/06/23 02:11:45;;;;;;;3.58;1.70;;;;;;;20.58;67.67;99360.56;4370345;32;35227;-77
2022/06/23 02:15:07;;;;;;;3.03;1.70;;;;;;;20.30;68.53;99366.63;4358495;32;33931;-77
2022/06/23 02:18:06;;;;;;;3.77;1.77;;;;;;;20.26;66.54;99353.84;4366323;32;34962;-78
2022/06/23 02:21:24;;;;;;;2.97;1.67;;;;;;;20.29;65.88;99365.03;4360597;32;34678;-78
2022/06/23 02:24:34;;;;;;;3.42;1.83;;;;;;;20.30;66.71;99363.84;4358648;32;34710;-78
2022/06/23 02:27:52;;;;;;;1.70;1.30;;;;;;;20.34;66.59;99355.53;4357245;32;34207;-78
2022/06/23 02:30:42;;;;;;;3.42;1.80;;;;;;;20.32;66.42;99358.72;4367004;32;34982;-78
2022/06/23 02:33:38;;;;;;;2.33;1.50;;;;;;;20.15;67.57;99354.56;4361221;32;33613;-78
2022/06/23 02:36:52;;;;;;;2.90;1.65;;;;;;;20.28;66.41;99357.06;4366851;32;34075;-78
2022/06/23 02:39:50;;;;;;;2.42;1.50;;;;;;;20.26;66.36;99371.34;4360392;32;34666;-77
2022/06/23 02:42:38;;;;;;;1.95;1.37;;;;;;;20.31;65.76;99378.56;4357513;32;35547;-78
2022/06/23 02:45:48;;;;;;;3.17;1.45;;;;;;;20.23;66.32;99391.59;4360008;32;35364;-78
2022/06/23 02:48:45;;;;;;;2.92;1.75;;;;;;;20.26;66.67;99395.59;4361791;32;34416;-78
2022/06/23 02:52:09;;;;;;;3.37;1.80;;;;;;;20.22;67.80;99395.56;4365865;32;35615;-78
2022/06/23 02:55:08;;;;;;;2.58;1.90;;;;;;;20.16;68.78;99386.75;4366512;32;35528;-78
2022/06/23 02:58:04;;;;;;;3.83;1.67;;;;;;;20.10;69.35;99391.06;4363944;32;34683;-78
2022/06/23 03:00:59;;;;;;;2.28;1.40;;;;;;;20.01;70.30;99407.25;4366076;32;34692;-77
2022/06/23 03:03:56;;;;;;;3.53;1.90;;;;;;;19.98;69.56;99419.16;4366614;32;34738;-78
2022/06/23 03:06:47;;;;;;;4.50;2.00;;;;;;;19.96;69.10;99418.72;4357381;32;35637;-77
2022/06/23 03:09:42;;;;;;;3.40;1.98;;;;;;;19.63;70.42;99406.34;4359174;32;35668;-77
2022/06/23 03:13:08;;;;;;;2.85;2.15;;;;;;;19.50;71.44;99410.56;4356641;32;34190;-78
2022/06/23 03:16:18;;;;;;;2.53;1.90;;;;;;;19.50;72.08;99418.91;4348716;32;34134;-77
2022/06/23 03:19:10;;;;;;;3.33;1.70;;;;;;;19.87;71.56;99430.13;4364727;32;36007;-77
2022/06/23 03:22:08;;;;;;;3.22;1.95;;;;;;;20.03;70.54;99423.56;4363759;32;34641;-78
2022/06/23 03:25:00;;;;;;;2.53;1.60;;;;;;;20.27;69.76;99427.81;4367083;32;34088;-77
2022/06/23 03:27:55;;;;;;;2.97;1.70;;;;;;;20.33;69.84;99437.41;4365767;32;35215;-77
2022/06/23 03:30:47;;;;;;;3.62;1.85;;;;;;;20.13;70.80;99434.00;4361506;32;35010;-77
2022/06/23 03:33:52;;;;;;;7.82;1.90;;;;;;;20.10;71.81;99430.00;4357542;32;34584;-77
2022/06/23 03:37:05;;;;;;;2.37;1.60;;;;;;;20.11;70.79;99428.81;4366798;32;34138;-78
2022/06/23 03:43:14;;;;;;;4.43;1.90;;;;;;;20.02;72.30;99430.31;4357751;32;34831;-77
2022/06/23 03:46:15;;;;;;;4.03;2.03;;;;;;;19.99;70.73;99435.44;4366080;32;34864;-78
2022/06/23 03:49:02;;;;;;;4.87;1.80;;;;;;;19.99;70.69;99440.19;4368222;32;34443;-78
2022/06/23 03:51:58;;;;;;;3.20;1.73;;;;;;;20.25;69.04;99446.84;4368160;32;35280;-78
2022/06/23 03:54:59;;;;;;;2.85;1.73;;;;;;;19.96;70.44;99452.09;4370098;32;35079;-78
2022/06/23 03:58:06;;;;;;;;;;;;;;;20.19;69.69;99461.09;4370142;32;34373;-77
2022/06/23 04:01:00;;;;;;;3.05;1.77;;;;;;;20.16;70.17;99464.62;4352804;32;34106;-77
2022/06/23 04:03:54;;;;;;;3.67;1.80;;;;;;;20.47;70.52;99470.16;4360392;32;35635;-77
2022/06/23 04:06:41;;;;;;;3.12;1.92;;;;;;;20.64;69.74;99467.56;4360394;32;34898;-78
2022/06/23 04:09:32;;;;;;;3.62;1.83;;;;;;;20.28;73.10;99473.91;4358217;32;34334;-78
2022/06/23 04:12:19;;;;;;;3.33;1.90;;;;;;;20.34;73.06;99472.38;4366465;32;34080;-78
2022/06/23 04:15:08;;;;;;;3.28;1.90;;;;;;;20.44;72.65;99474.50;4369363;32;35004;-78
2022/06/23 04:18:01;;;;;;;4.35;1.98;;;;;;;20.60;71.65;99475.06;4360854;32;35896;-78
2022/06/23 04:20:55;;;;;;;3.67;1.95;;;;;;;20.92;68.95;99480.16;4359132;32;34288;-77
2022/06/23 04:23:54;;;;;;;3.80;2.10;;;;;;;21.11;67.64;99479.91;4361600;32;35098;-77
2022/06/23 04:26:43;;;;;;;4.57;2.05;;;;;;;20.97;68.42;99482.56;4364510;32;35163;-77
2022/06/23 04:29:36;;;;;;;4.57;1.90;;;;;;;21.24;66.99;99485.19;4360286;32;35949;-77
2022/06/23 04:32:26;;;;;;;3.08;1.80;;;;;;;21.04;67.23;99493.78;4368830;32;34864;-77
2022/06/23 04:35:17;;;;;;;3.00;1.90;;;;;;;21.24;64.83;99491.56;4368883;32;33730;-78
2022/06/23 04:38:23;;;;;;;4.45;2.08;;;;;;;21.30;65.17;99497.56;4365446;32;34731;-77
2022/06/23 04:41:17;;;;;;;5.25;2.10;;;;;;;21.03;65.76;99496.94;4365449;32;34467;-77
2022/06/23 04:44:12;;;;;;;3.67;1.90;;;;;;;21.32;63.92;99501.56;4358860;32;34413;-77
2022/06/23 04:47:01;;;;;;;4.90;2.15;;;;;;;21.18;63.30;99503.44;4360353;32;34042;-78
2022/06/23 04:49:53;;;;;;;6.45;2.00;;;;;;;20.53;67.92;99511.19;4368858;32;35606;-78
2022/06/23 04:52:52;;;;;;;3.55;1.80;;;;;;;21.17;62.42;99513.78;4360309;32;35095;-78
2022/06/23 04:55:39;;;;;;;2.97;1.40;;;;;;;21.17;59.59;99510.19;4360453;32;35589;-77
2022/06/23 04:58:25;;;;;;;5.30;1.42;;;;;;;21.59;51.89;99506.16;4359025;32;33588;-78
2022/06/23 05:01:15;;;;;;;5.03;1.80;;;;;;;21.59;49.85;99512.53;4361042;32;35519;-78
2022/06/23 05:04:03;;;;;;;3.03;1.20;;;;;;;21.56;50.22;99519.66;4351357;32;34951;-78
2022/06/23 05:06:53;;;;;;;2.75;1.30;;;;;;;21.79;49.59;99521.41;4361109;32;34664;-77
2022/06/23 05:09:41;;;;;;;3.10;1.25;;;;;;;21.50;47.03;99520.44;4359339;32;35107;-78
2022/06/23 05:12:37;;;;;;;3.47;1.27;;;;;;;21.50;48.05;99526.00;4367157;32;34745;-77
2022/06/23 05:15:45;;;;;;;1.92;1.30;;;;;;;20.94;47.38;99533.47;4361766;32;35617;-78
2022/06/23 05:18:38;;;;;;;2.17;1.23;;;;;;;21.56;46.88;99541.97;4365408;32;35349;-77
2022/06/23 05:21:31;;;;;;;2.60;1.20;;;;;;;21.81;46.48;99541.34;4358567;32;33620;-77
2022/06/23 05:24:20;;;;;;;3.15;1.10;;;;;;;21.86;47.95;99538.19;4361262;32;34594;-78
2022/06/23 05:27:25;;;;;;;3.65;1.27;;;;;;;21.62;44.17;99545.19;4366273;32;34719;-77
2022/06/23 05:30:14;;;;;;;3.03;1.27;;;;;;;22.08;44.81;99541.09;4364042;32;35203;-77
2022/06/23 05:33:01;;;;;;;1.83;1.27;;;;;;;21.60;43.40;99546.78;4363189;32;33571;-77
2022/06/23 05:35:51;;;;;;;3.97;1.40;;;;;;;22.18;44.14;99549.53;4366666;32;35650;-77
2022/06/23 05:38:49;;;;;;;3.65;1.60;;;;;;;21.78;44.01;99551.28;4358264;32;34584;-77
2022/06/23 05:41:39;;;;;;;4.10;1.40;;;;;;;21.83;43.49;99550.13;4346095;32;33641;-77
2022/06/23 05:44:40;;;;;;;3.65;1.33;;;;;;;22.39;40.87;99560.00;4361393;32;34250;-77
2022/06/23 05:47:29;;;;;;;5.30;1.58;;;;;;;22.42;42.15;99558.41;4358910;32;35614;-77
2022/06/23 05:50:23;;;;;;;1.95;1.27;;;;;;;22.26;41.75;99561.53;4362989;32;34982;-77
2022/06/23 05:53:15;;;;;;;5.30;1.30;;;;;;;21.82;41.72;99564.44;4359070;32;34722;-77
2022/06/23 05:56:04;;;;;;;3.30;1.42;;;;;;;22.24;41.90;99569.50;4359797;32;33845;-78
2022/06/23 05:59:02;;;;;;;2.50;1.30;;;;;;;22.75;39.60;99568.50;4365163;32;34583;-77
2022/06/23 06:01:55;;;;;;;2.60;1.10;;;;;;;22.67;38.55;99569.66;4357291;32;35639;-77
2022/06/23 06:04:53;;;;;;;3.00;1.40;;;;;;;22.94;38.62;99574.91;4366606;32;35551;-78
2022/06/23 06:07:40;;;;;;;2.65;1.35;;;;;;;22.98;38.96;99572.97;4358576;32;34211;-77
2022/06/23 06:10:28;;;;;;;3.15;1.05;;;;;;;23.48;37.22;99573.81;4359300;32;34641;-78
2022/06/23 06:13:21;;;;;;;3.20;1.15;;;;;;;23.32;37.33;99574.19;4360719;32;35014;-77
2022/06/23 06:16:07;;;;;;;2.08;1.10;;;;;;;23.33;37.59;99578.56;4360213;32;34607;-78
2022/06/23 06:18:54;;;;;;;2.60;1.40;;;;;;;23.56;38.30;99582.97;4360980;32;34982;-77
2022/06/23 06:21:40;;;;;;;3.72;1.10;;;;;;;23.03;36.78;99581.75;4365093;32;34700;-78
2022/06/23 06:24:37;;;;;;;2.28;1.35;;;;;;;23.20;37.80;99591.38;4361633;32;35998;-77
2022/06/23 06:27:25;;;;;;;4.12;1.50;;;;;;;23.98;36.43;99595.34;4365838;32;34664;-78
2022/06/23 06:30:18;;;;;;;3.35;1.40;;;;;;;24.16;36.09;99590.53;4358693;32;33693;-78
2022/06/23 06:33:05;;;;;;;3.03;1.50;;;;;;;24.18;35.58;99582.50;4360802;32;35722;-78
2022/06/23 06:35:55;;;;;;;3.40;1.30;;;;;;;24.67;35.92;99580.72;4367056;32;35968;-78
2022/06/23 06:38:42;;;;;;;3.80;1.10;;;;;;;24.12;37.24;99594.50;4364988;32;35440;-78
2022/06/23 06:41:28;;;;;;;2.58;1.35;;;;;;;24.59;34.48;99590.37;4365738;32;33850;-78
2022/06/23 06:44:16;;;;;;;2.53;1.25;;;;;;;24.53;35.13;99589.19;4367214;32;35433;-78
2022/06/23 06:47:03;;;;;;;3.70;1.40;;;;;;;24.34;34.96;99600.84;4368121;32;36389;-77
2022/06/23 06:49:51;;;;;;;2.03;1.40;;;;;;;24.15;34.71;99602.91;4363961;32;34672;-78
2022/06/23 06:52:37;;;;;;;3.90;1.30;;;;;;;24.68;35.89;99598.34;4359463;32;33761;-78
2022/06/23 06:55:38;;;;;;;6.37;1.37;;;;;;;24.72;33.63;99599.13;4358378;32;34684;-78
2022/06/23 06:58:37;;;;;;;5.12;1.45;;;;;;;25.16;32.77;99605.28;4358411;32;35939;-78
2022/06/23 07:01:25;;;;;;;2.75;1.62;;;;;;;25.17;32.89;99604.87;4368069;32;34703;-78
2022/06/23 07:04:17;;;;;;;4.18;1.30;;;;;;;25.39;33.41;99607.53;4357565;32;34679;-78
2022/06/23 07:07:07;;;;;;;4.75;1.40;;;;;;;25.21;34.69;99613.28;4359460;32;34673;-77
2022/06/23 07:10:35;;;;;;;3.30;1.20;;;;;;;23.92;33.54;99613.75;4359928;32;35025;-78
2022/06/23 07:13:47;;;;;;;1.75;1.10;;;;;;;24.93;34.25;99615.00;4363749;32;35221;-78
2022/06/23 07:16:40;;;;;;;4.93;1.37;;;;;;;25.38;32.64;99608.75;4365747;32;34058;-79
2022/06/23 07:19:38;;;;;;;3.17;1.40;;;;;;;25.27;33.92;99617.22;4364922;32;35169;-78
2022/06/23 07:22:43;;;;;;;1.87;1.12;;;;;;;25.52;33.14;99609.41;4366865;32;36045;-78
2022/06/23 07:25:33;;;;;;;5.47;1.55;;;;;;;25.34;33.73;99620.00;4362423;32;34727;-78
2022/06/23 07:28:19;;;;;;;2.08;1.30;;;;;;;25.65;32.70;99620.16;4360914;32;34754;-78
2022/06/23 07:31:16;;;;;;;3.72;1.37;;;;;;;25.79;32.87;99615.22;4367394;32;34643;-78
2022/06/23 07:34:05;;;;;;;2.10;1.20;;;;;;;25.72;32.38;99626.47;4365609;32;35148;-78
2022/06/23 07:36:57;;;;;;;2.55;1.52;;;;;;;25.28;34.21;99624.44;4362621;32;34631;-78
2022/06/23 07:39:44;;;;;;;4.12;1.50;;;;;;;25.16;32.84;99636.94;4367623;32;34456;-78
2022/06/23 07:42:40;;;;;;;2.35;1.37;;;;;;;25.05;32.75;99633.38;4360303;32;34551;-78
2022/06/23 07:45:34;;;;;;;4.15;1.58;;;;;;;25.44;33.51;99638.72;4365682;32;34993;-79
2022/06/23 07:48:21;;;;;;;4.28;1.30;;;;;;;24.98;34.21;99645.41;4361165;32;35563;-79
2022/06/23 07:51:09;;;;;;;5.03;1.40;;;;;;;25.63;32.72;99639.41;4360716;32;34044;-78
2022/06/23 07:53:57;;;;;;;4.90;1.45;;;;;;;25.96;31.99;99635.94;4369110;32;34204;-79
2022/06/23 07:56:43;;;;;;;2.55;1.42;;;;;;;25.77;31.76;99634.47;4362001;32;34976;-78
2022/06/23 07:59:36;;;;;;;2.67;1.48;;;;;;;25.14;33.22;99639.34;4370493;32;34650;-78
2022/06/23 08:02:23;;;;;;;4.93;1.40;;;;;;;25.88;32.43;99640.03;4370680;32;34115;-78
2022/06/23 08:05:14;;;;;;;4.12;1.58;;;;;;;24.85;31.50;99647.09;4370731;32;34758;-78
2022/06/23 08:08:01;;;;;;;3.15;1.50;;;;;;;24.94;32.04;99641.84;4364017;32;34967;-78
2022/06/23 08:12:53;;;;;;;4.15;1.52;;;;;;;25.71;31.52;99635.34;4360916;32;34668;-78
2022/06/23 08:14:02;;;;;;;4.35;1.62;;;;;;;26.03;30.38;99637.88;4360935;32;34753;-79
2022/06/23 08:16:51;;;;;;;4.43;1.40;;;;;;;26.16;32.67;99638.16;4361229;32;34340;-79
2022/06/23 08:19:42;;;;;;;4.05;1.52;;;;;;;26.63;30.17;99646.88;4368630;32;36047;-78
2022/06/23 08:22:33;;;;;;;4.18;1.60;;;;;;;26.46;31.48;99638.19;4360420;32;34413;-79
2022/06/23 08:25:19;;;;;;;4.90;1.50;;;;;;;26.64;30.63;99640.84;4365857;32;34407;-78
2022/06/23 08:28:07;;;;;;;6.00;1.70;;;;;;;25.73;31.27;99638.53;4367100;32;34692;-79
2022/06/23 08:30:54;;;;;;;5.12;1.48;;;;;;;25.31;32.52;99640.44;4359665;32;34911;-79
2022/06/23 08:33:40;;;;;;;4.72;1.70;;;;;;;25.70;30.75;99639.34;4360372;32;35440;-79
2022/06/23 08:36:39;;;;;;;4.03;1.75;;;;;;;26.65;35.00;99638.81;4368135;32;34592;-80
2022/06/23 08:40:04;;;;;;;4.10;1.60;;;;;;;26.51;29.36;99628.56;4365096;32;35806;-79
2022/06/23 08:43:18;;;;;;;3.83;1.40;;;;;;;26.78;29.08;99637.06;4360048;32;35954;-79
2022/06/23 08:46:39;;;;;;;3.92;1.70;;;;;;;26.35;28.98;99629.09;4366849;32;35485;-80
2022/06/23 08:49:33;;;;;;;4.03;1.58;;;;;;;27.28;29.61;99633.56;4360407;32;34703;-80
2022/06/23 08:52:30;;;;;;;6.55;1.48;;;;;;;27.37;29.40;99631.00;4360337;32;34742;-79
2022/06/23 08:55:25;;;;;;;5.12;1.77;;;;;;;27.04;30.71;99632.69;4367993;32;35528;-79
2022/06/23 08:58:36;;;;;;;3.33;1.75;;;;;;;27.27;29.18;99636.81;4362441;32;34484;-79
2022/06/23 09:01:45;;;;;;;4.05;1.50;;;;;;;27.29;27.46;99634.34;4359692;32;34997;-78
2022/06/23 09:04:35;;;;;;;5.43;2.03;;;;;;;26.94;27.75;99630.03;4368067;32;34378;-79
2022/06/23 09:07:40;;;;;;;6.68;2.10;;;;;;;27.13;27.39;99632.16;4365834;32;34948;-80
2022/06/23 09:11:01;;;;;;;4.75;1.50;;;;;;;27.91;28.77;99629.34;4365917;32;34790;-80
2022/06/23 09:13:50;;;;;;;;;;;;;;;27.10;27.43;99630.19;4371469;32;34569;-79
2022/06/23 09:16:59;;;;;;;5.43;1.67;;;;;;;27.79;28.29;99627.94;4367649;32;35023;-81
2022/06/23 09:19:57;;;;;;;2.97;1.40;;;;;;;28.58;28.94;99627.28;4366981;32;34854;-80
2022/06/23 09:22:47;;;;;;;5.07;1.48;;;;;;;27.92;26.88;99620.50;4362300;32;34686;-80
2022/06/23 09:25:33;;;;;;;3.58;1.60;;;;;;;28.68;27.10;99619.84;4361569;32;35045;-79
2022/06/23 09:28:46;;;;;;;2.97;1.45;;;;;;;29.12;27.94;99621.31;4365806;32;34181;-79
2022/06/23 09:31:59;;;;;;;4.15;1.35;;;;;;;29.29;27.01;99624.16;4362880;32;34945;-80
2022/06/23 09:34:54;;;;;;;2.62;1.60;;;;;;;28.15;27.55;99616.84;4360801;32;35393;-79
2022/06/23 09:37:40;;;;;;;2.17;1.52;;;;;;;28.56;26.06;99629.75;4360302;32;34347;-79
2022/06/23 09:40:39;;;;;;;1.90;1.65;;;;;;;28.73;26.15;99627.78;4364401;32;34727;-78
2022/06/23 09:43:38;;;;;;;6.75;1.60;;;;;;;29.34;27.67;99627.25;4358707;32;34580;-79
2022/06/23 09:46:39;;;;;;;5.32;1.58;;;;;;;29.49;24.93;99627.69;4370416;32;34732;-79
2022/06/23 09:49:31;;;;;;;3.58;1.92;;;;;;;29.10;25.19;99625.78;4359577;32;33660;-80
2022/06/23 09:52:39;;;;;;;5.95;1.70;;;;;;;28.86;26.44;99620.25;4367114;32;35308;-81
2022/06/23 09:55:39;;;;;;;2.33;1.40;;;;;;;29.67;26.00;99615.19;4359892;32;35507;-80
2022/06/23 09:58:28;;;;;;;3.20;1.60;;;;;;;29.95;25.20;99608.00;4356414;32;35539;-81
2022/06/23 10:01:28;;;;;;;3.60;1.60;;;;;;;29.66;24.28;99617.22;4366666;32;34176;-81
2022/06/23 10:04:18;;;;;;;2.78;1.30;;;;;;;29.76;24.76;99618.97;4360392;32;35599;-81
2022/06/23 10:07:22;;;;;;;3.65;1.50;;;;;;;30.27;23.78;99607.16;4361417;32;35938;-83
2022/06/23 10:10:16;;;;;;;3.97;1.70;;;;;;;30.64;21.67;99607.72;4365165;32;34270;-82
2022/06/23 10:13:18;;;;;;;2.65;1.48;;;;;;;30.37;24.76;99606.06;4361640;32;34102;-85
2022/06/23 10:16:32;;;;;;;3.75;1.40;;;;;;;29.75;23.73;99603.28;4356484;32;35564;-87
2022/06/23 10:19:54;;;;;;;2.05;1.40;;;;;;;29.17;23.56;99610.72;4358271;32;35004;-88
2022/06/23 10:22:58;;;;;;;1.95;1.40;;;;;;;28.76;25.47;99617.66;4356803;32;34682;-88
2022/06/23 10:26:13;;;;;;;1.80;1.65;;;;;;;30.11;24.91;99610.00;4369575;32;34318;-87
2022/06/23 10:29:10;;;;;;;3.90;1.87;;;;;;;30.65;24.67;99601.62;4359445;32;34901;-91
2022/06/23 10:32:16;;;;;;;4.12;1.52;;;;;;;30.16;24.10;99598.16;4358988;32;34913;-88
2022/06/23 10:35:21;;;;;;;3.78;1.60;;;;;;;29.12;24.09;99606.41;4363391;32;34925;-86
2022/06/23 10:38:22;;;;;;;2.75;1.30;;;;;;;28.81;23.84;99609.50;4367045;32;34973;-87
2022/06/23 10:41:24;;;;;;;2.20;1.80;;;;;;;29.79;22.46;99606.00;4366560;32;34690;-87
2022/06/23 10:44:27;;;;;;;3.08;1.37;;;;;;;30.80;22.38;99599.19;4350525;32;35975;-87
2022/06/23 10:47:37;;;;;;;5.50;1.40;;;;;;;30.72;21.95;99600.62;4357848;32;34650;-88
2022/06/23 10:50:36;;;;;;;4.43;1.40;;;;;;;31.32;22.00;99602.81;4353877;32;35025;-88
2022/06/23 10:53:48;;;;;;;3.30;1.65;;;;;;;31.81;21.72;99597.53;4358189;32;35627;-88
2022/06/23 10:57:01;;;;;;;5.07;1.60;;;;;;;32.32;25.67;99596.56;4369234;32;35026;-87
2022/06/23 11:00:03;;;;;;;4.62;1.20;;;;;;;31.37;20.39;99590.97;4362453;32;33294;-88
2022/06/23 11:03:14;;;;;;;4.07;1.20;;;;;;;31.74;19.37;99586.47;4368312;32;33760;-85
2022/06/23 11:06:21;;;;;;;3.40;1.23;;;;;;;30.99;19.52;99593.75;4368843;32;34249;-86
2022/06/23 11:09:07;;;;;;;2.95;1.30;;;;;;;30.48;19.63;99580.31;4359469;32;34566;-87
2022/06/23 11:12:19;;;;;;;3.75;1.40;;;;;;;29.62;23.92;99596.72;4365537;32;34710;-84
2022/06/23 11:15:11;;;;;;;2.60;1.50;;;;;;;28.98;22.52;99599.03;4360970;32;34133;-86
2022/06/23 11:18:26;;;;;;;4.50;2.20;;;;;;;29.46;24.51;99600.34;4365819;32;35293;-86
2022/06/23 11:21:31;;;;;;;3.22;1.50;;;;;;;29.99;23.17;99598.19;4369407;32;36049;-87
2022/06/23 11:24:55;;;;;;;2.20;1.35;;;;;;;30.76;21.00;99595.63;4362649;32;34710;-87
2022/06/23 11:28:04;;;;;;;1.85;1.48;;;;;;;30.35;23.71;99597.25;4366827;32;33757;-86
2022/06/23 11:31:18;;;;;;;3.05;1.40;;;;;;;29.53;22.91;99593.72;4359555;32;35564;-86
2022/06/23 11:34:36;;;;;;;3.80;1.25;;;;;;;30.40;22.34;99584.59;4364684;32;34517;-87
2022/06/23 11:37:39;;;;;;;1.65;1.10;;;;;;;31.51;21.88;99586.88;4358573;32;34888;-89
2022/06/23 11:40:48;;;;;;;3.42;1.40;;;;;;;31.84;19.74;99578.84;4362361;32;34356;-89
2022/06/23 11:43:56;;;;;;;1.75;1.30;;;;;;;31.92;20.05;99570.91;4351971;32;35540;-88
2022/06/23 11:46:49;;;;;;;5.60;1.40;;;;;;;31.47;19.78;99586.19;4360051;32;35055;-89
2022/06/23 11:49:43;;;;;;;1.58;1.00;;;;;;;31.53;20.60;99575.84;4364249;32;34784;-87
2022/06/23 11:52:44;;;;;;;1.62;1.00;;;;;;;31.01;20.95;99591.28;4364403;32;35019;-85
2022/06/23 11:55:42;;;;;;;3.33;1.30;;;;;;;30.14;18.67;99578.03;4365552;32;35459;-87
2022/06/23 11:58:49;;;;;;;2.95;1.30;;;;;;;30.47;19.04;99584.38;4363520;32;34672;-86
2022/06/23 12:01:36;;;;;;;1.95;1.27;;;;;;;31.54;19.69;99588.78;4365246;32;34768;-92
2022/06/23 12:04:28;;;;;;;3.87;1.27;;;;;;;31.41;19.62;99588.78;4371917;32;34183;-90
2022/06/23 12:07:14;;;;;;;2.85;1.23;;;;;;;32.06;21.27;99589.44;4365416;32;35873;-88
2022/06/23 12:10:21;;;;;;;1.50;1.00;;;;;;;32.62;19.87;99586.56;4365472;32;33925;-90
2022/06/23 12:13:07;;;;;;;1.92;1.05;;;;;;;31.59;17.56;99586.16;4370947;32;33752;-87
2022/06/23 12:15:55;;;;;;;2.12;1.10;;;;;;;30.86;19.14;99594.56;4360817;32;34170;-89
2022/06/23 12:18:51;;;;;;;2.97;1.20;;;;;;;31.60;20.00;99586.97;4360962;32;35264;-85
2022/06/23 12:21:44;;;;;;;2.47;1.25;;;;;;;29.93;20.15;99588.69;4361386;32;35000;-88
2022/06/23 12:24:56;;;;;;;3.35;1.10;;;;;;;29.64;20.45;99604.78;4367396;32;34743;-87
2022/06/23 12:28:16;;;;;;;2.12;1.23;;;;;;;30.10;22.92;99591.47;4371304;32;35103;-87
2022/06/23 12:31:20;;;;;;;3.37;1.17;;;;;;;30.38;20.48;99595.56;4327446;32;34227;-84
2022/06/23 12:34:31;;;;;;;3.53;1.30;;;;;;;30.89;20.73;99601.34;4368137;32;34955;-85
2022/06/23 12:37:40;;;;;;;2.58;1.48;;;;;;;31.22;20.66;99579.25;4361089;32;34725;-88
2022/06/23 12:40:33;;;;;;;3.03;1.35;;;;;;;31.39;20.85;99590.50;4367427;32;34328;-87
2022/06/23 12:43:37;;;;;;;3.30;1.30;;;;;;;31.02;19.52;99593.62;4361968;32;34589;-84
2022/06/23 12:46:33;;;;;;;2.65;1.20;;;;;;;30.28;19.95;99596.63;4361324;32;34960;-86
2022/06/23 12:49:28;;;;;;;3.87;1.60;;;;;;;30.32;20.72;99581.19;4365548;32;35092;-87
2022/06/23 12:52:24;;;;;;;1.17;1.02;;;;;;;32.15;21.35;99576.13;4367232;32;34390;-84
2022/06/23 12:55:23;;;;;;;2.87;1.30;;;;;;;31.42;19.26;99569.75;4366499;32;34246;-88
2022/06/23 12:58:28;;;;;;;3.28;1.48;;;;;;;31.91;19.96;99569.34;4370808;32;34985;-85
2022/06/23 13:01:17;;;;;;;2.00;1.20;;;;;;;30.45;20.71;99570.72;4366931;32;35467;-86
2022/06/23 13:04:40;;;;;;;2.42;1.52;;;;;;;29.36;22.92;99579.63;4362005;32;35254;-88
2022/06/23 13:07:34;;;;;;;2.28;1.23;;;;;;;29.80;22.72;99573.72;4369221;32;35735;-88
2022/06/23 13:10:42;;;;;;;4.03;1.37;;;;;;;29.53;22.60;99577.59;4371323;32;35023;-85
2022/06/23 13:13:37;;;;;;;2.05;1.27;;;;;;;29.37;22.55;99586.03;4360018;32;35498;-85
2022/06/23 13:16:28;;;;;;;2.47;1.30;;;;;;;28.58;23.26;99579.38;4359242;32;34148;-85
2022/06/23 13:19:22;;;;;;;4.03;1.50;;;;;;;29.18;23.32;99576.44;4360964;32;34574;-86
2022/06/23 13:22:09;;;;;;;2.50;1.20;;;;;;;29.88;22.01;99575.09;4371413;32;35015;-87
2022/06/23 13:24:56;;;;;;;2.65;1.27;;;;;;;29.89;21.51;99573.87;4361488;32;34341;-89
2022/06/23 13:27:49;;;;;;;1.90;1.20;;;;;;;30.01;22.40;99570.28;4360831;32;34106;-87
2022/06/23 13:31:00;;;;;;;4.10;1.40;;;;;;;30.61;20.55;99566.22;4363046;32;34582;-87
2022/06/23 13:33:55;;;;;;;2.25;1.40;;;;;;;31.19;21.90;99577.34;4363066;32;34529;-89
2022/06/23 13:36:52;;;;;;;2.90;1.45;;;;;;;31.12;20.67;99567.06;4345205;32;684029;-88
2022/06/23 13:40:17;;;;;;;4.03;1.50;;;;;;;32.22;22.24;99567.37;4351780;32;34239;-88
2022/06/23 13:43:19;;;;;;;6.20;1.42;;;;;;;33.13;20.07;99566.34;4368142;32;34676;-89
2022/06/23 13:46:12;;;;;;;4.12;1.40;;;;;;;31.84;19.52;99555.38;4367673;32;35024;-88
2022/06/23 13:49:26;;;;;;;3.25;1.12;;;;;;;32.28;20.28;99561.13;4364562;32;34600;-88
2022/06/23 13:52:32;;;;;;;2.47;1.10;;;;;;;32.61;21.57;99555.84;4369676;32;34228;-89
2022/06/23 13:55:23;;;;;;;3.05;1.08;;;;;;;31.99;19.50;99553.63;4361680;32;34742;-86
2022/06/23 13:58:21;;;;;;;2.80;1.40;;;;;;;31.79;19.75;99557.56;4366375;32;35042;-87
2022/06/23 14:01:17;;;;;;;3.25;1.58;;;;;;;30.70;20.66;99555.00;4367666;32;34200;-86